createdAt,value
2022-12-23T00:01:28.518Z,65.25
2022-12-23T00:06:31.041Z,39.83
2022-12-23T00:11:33.571Z,30.70
2022-12-23T00:16:37.756Z,54.05
2022-12-23T00:21:40.225Z,27.70
2022-12-23T00:26:42.660Z,21.75
2022-12-23T00:31:46.365Z,52.05
2022-12-23T00:36:48.931Z,37.55
2022-12-23T00:42:10.239Z,44.15
2022-12-23T00:47:32.597Z,30.23
2022-12-23T00:52:35.082Z,36.65
2022-12-23T00:57:37.599Z,62.38
2022-12-23T01:02:58.813Z,69.38
2022-12-23T01:08:01.264Z,54.50
2022-12-23T01:13:04.287Z,30.60
2022-12-23T01:18:06.775Z,63.10
2022-12-23T01:23:09.203Z,33.00
2022-12-23T01:28:11.635Z,42.20
2022-12-23T01:33:14.090Z,48.78
2022-12-23T01:43:47.789Z,39.72
2022-12-23T01:48:53.262Z,27.33
2022-12-23T01:54:01.415Z,39.70
2022-12-23T01:59:09.926Z,33.25
2022-12-23T02:04:16.476Z,28.10
2022-12-23T02:09:33.983Z,40.10
2022-12-23T02:14:54.871Z,36.97
2022-12-23T02:20:32.569Z,18.42
2022-12-23T02:26:14.364Z,43.70
2022-12-23T02:31:46.305Z,27.90
2022-12-23T02:37:06.609Z,21.77
2022-12-23T02:42:20.964Z,29.33
2022-12-23T02:47:29.044Z,22.30
2022-12-23T02:52:34.691Z,45.20
2022-12-23T02:57:41.264Z,57.85
2022-12-23T03:08:07.892Z,31.63
2022-12-23T03:13:24.106Z,30.30
2022-12-23T03:18:52.238Z,37.88
2022-12-23T03:24:40.944Z,29.45
2022-12-23T03:30:02.406Z,33.78
2022-12-23T03:35:08.581Z,25.83
2022-12-23T03:40:31.958Z,23.45
2022-12-23T03:45:42.318Z,29.90
2022-12-23T03:50:46.770Z,21.92
2022-12-23T03:55:55.730Z,36.35
2022-12-23T04:01:04.988Z,60.72
2022-12-23T04:11:34.510Z,53.90
2022-12-23T04:16:37.400Z,16.92
2022-12-23T04:21:40.063Z,24.05
2022-12-23T04:26:42.608Z,31.40
2022-12-23T04:31:45.125Z,29.45
2022-12-23T04:36:47.658Z,21.52
2022-12-23T04:41:50.432Z,34.30
2022-12-23T04:46:53.086Z,43.67
2022-12-23T04:51:55.549Z,47.10
2022-12-23T04:56:57.979Z,31.67
2022-12-23T05:02:00.681Z,19.85
2022-12-23T05:07:03.435Z,27.23
2022-12-23T05:12:05.872Z,24.58
2022-12-23T05:17:08.349Z,38.03
2022-12-23T05:22:10.759Z,18.15
2022-12-23T05:27:13.510Z,59.80
2022-12-23T05:32:16.006Z,70.95
2022-12-23T05:37:18.482Z,22.20
2022-12-23T05:42:20.910Z,16.13
2022-12-23T05:47:23.327Z,51.00
2022-12-23T05:52:26.001Z,12.95
2022-12-23T05:57:28.445Z,17.13
2022-12-23T06:02:31.142Z,15.52
2022-12-23T06:07:33.826Z,17.52
2022-12-23T06:12:36.391Z,13.30
2022-12-23T06:17:39.134Z,21.50
2022-12-23T06:22:41.607Z,28.88
2022-12-23T06:27:44.184Z,31.98
2022-12-23T06:32:46.734Z,23.27
2022-12-23T06:37:49.283Z,23.25
2022-12-23T06:42:51.798Z,25.00
2022-12-23T06:47:54.442Z,23.85
2022-12-23T06:52:56.888Z,13.82
2022-12-23T06:57:59.285Z,17.95
2022-12-23T07:03:01.857Z,13.32
2022-12-23T07:08:04.542Z,16.75
2022-12-23T07:13:07.041Z,15.63
2022-12-23T07:18:09.527Z,24.50
2022-12-23T07:23:13.010Z,17.02
2022-12-23T07:28:15.467Z,16.13
2022-12-23T07:33:17.962Z,13.52
2022-12-23T07:43:40.418Z,12.48
2022-12-23T07:54:02.779Z,8.07
2022-12-23T07:59:05.265Z,17.25
2022-12-23T08:04:07.720Z,19.17
2022-12-23T08:09:11.757Z,14.85
2022-12-23T08:14:14.239Z,13.05
2022-12-23T08:19:16.835Z,13.75
2022-12-23T08:24:19.239Z,18.38
2022-12-23T08:29:21.741Z,12.73
2022-12-23T08:34:24.278Z,11.70
2022-12-23T08:39:26.924Z,9.90
2022-12-23T08:44:30.193Z,12.32
2022-12-23T08:49:32.606Z,11.32
2022-12-23T08:54:35.153Z,11.57
2022-12-23T08:59:37.558Z,11.38
2022-12-23T09:04:40.022Z,14.43
2022-12-23T09:09:42.575Z,11.63
2022-12-23T09:14:47.949Z,11.48
2022-12-23T09:19:52.905Z,11.38
2022-12-23T09:24:59.972Z,11.82
2022-12-23T09:35:27.430Z,12.15
2022-12-23T09:40:33.479Z,10.57
2022-12-23T09:45:45.287Z,12.05
2022-12-23T09:50:48.774Z,11.93
2022-12-23T09:56:02.818Z,14.82
2022-12-23T10:01:23.162Z,14.73
2022-12-23T10:06:29.553Z,12.93
2022-12-23T10:11:41.682Z,22.95
2022-12-23T10:16:49.845Z,14.20
2022-12-23T10:22:14.156Z,14.60
2022-12-23T10:27:30.290Z,10.57
2022-12-23T10:33:06.001Z,11.18
2022-12-23T10:38:47.234Z,12.23
2022-12-23T10:44:16.694Z,16.00
2022-12-23T10:49:22.153Z,14.52
2022-12-23T10:54:29.551Z,13.32
2022-12-23T10:59:34.079Z,17.38
2022-12-23T11:04:43.089Z,21.10
2022-12-23T11:09:55.434Z,23.55
2022-12-23T11:14:58.401Z,22.45
2022-12-23T11:20:12.584Z,21.70
2022-12-23T11:25:40.739Z,27.80
2022-12-23T11:30:50.502Z,22.48
2022-12-23T11:36:25.552Z,24.27
2022-12-23T11:41:34.192Z,28.83
2022-12-23T11:46:36.815Z,29.20
2022-12-23T11:51:39.294Z,27.20
2022-12-23T11:56:42.525Z,35.03
2022-12-23T12:01:49.184Z,33.65
2022-12-23T12:06:56.543Z,31.70
2022-12-23T12:17:38.332Z,35.50
2022-12-23T12:22:49.981Z,52.00
2022-12-23T12:28:03.212Z,32.58
2022-12-23T12:33:19.015Z,30.65
2022-12-23T12:38:29.608Z,31.23
2022-12-23T12:43:35.056Z,22.35
2022-12-23T12:49:01.673Z,17.95
2022-12-23T12:54:19.848Z,21.40
2022-12-23T12:59:27.562Z,20.80
2022-12-23T13:10:13.019Z,25.15
2022-12-23T13:15:22.228Z,20.08
2022-12-23T13:20:46.475Z,16.15
2022-12-23T13:26:00.932Z,36.15
2022-12-23T13:37:23.990Z,16.55
2022-12-23T13:42:48.744Z,25.13
2022-12-23T13:48:04.735Z,13.65
2022-12-23T13:53:36.288Z,25.77
2022-12-23T13:58:40.944Z,38.05
2022-12-23T14:03:44.922Z,21.65
2022-12-23T14:08:48.190Z,24.35
2022-12-23T14:13:50.599Z,17.52
2022-12-23T14:19:02.084Z,30.55
2022-12-23T14:24:36.511Z,21.50
2022-12-23T14:30:05.788Z,28.10
2022-12-23T14:35:42.716Z,19.08
2022-12-23T14:41:50.916Z,21.65
2022-12-23T14:52:42.648Z,19.60
2022-12-23T14:57:48.064Z,19.33
2022-12-23T15:02:56.489Z,16.70
2022-12-23T15:07:58.993Z,34.70
2022-12-23T15:13:03.442Z,24.40
2022-12-23T15:18:13.645Z,44.30
2022-12-23T15:23:18.823Z,46.35
2022-12-23T15:28:28.377Z,47.20
2022-12-23T15:34:02.046Z,59.55
2022-12-23T15:50:29.875Z,43.60
2022-12-23T15:55:58.620Z,34.42
2022-12-23T16:01:04.149Z,27.65
2022-12-23T16:06:24.498Z,30.63
2022-12-23T16:11:59.160Z,21.83
2022-12-23T16:17:14.266Z,27.13
2022-12-23T16:22:29.593Z,26.83
2022-12-23T16:27:44.954Z,20.63
2022-12-23T16:32:59.946Z,18.88
2022-12-23T16:38:23.760Z,19.17
2022-12-23T16:43:26.491Z,19.98
2022-12-23T16:48:33.793Z,26.05
2022-12-23T16:53:36.211Z,13.85
2022-12-23T16:58:39.042Z,32.50
2022-12-23T17:03:41.658Z,32.22
2022-12-23T17:08:44.214Z,20.42
2022-12-23T17:19:07.541Z,21.80
2022-12-23T17:24:20.695Z,18.95
2022-12-23T17:29:23.248Z,20.48
2022-12-23T17:34:25.720Z,26.73
2022-12-23T17:39:28.239Z,23.50
2022-12-23T17:44:30.757Z,21.63
2022-12-23T17:49:33.224Z,19.77
2022-12-23T17:54:35.653Z,21.63
2022-12-23T17:59:38.141Z,19.20
2022-12-23T18:04:40.643Z,19.98
2022-12-23T18:09:43.301Z,17.05
2022-12-23T18:14:45.843Z,20.38
2022-12-23T18:19:48.295Z,18.63
2022-12-23T18:24:57.024Z,17.00
2022-12-23T18:35:29.372Z,16.38
2022-12-23T18:40:33.221Z,13.23
2022-12-23T18:45:42.172Z,16.55
2022-12-23T18:50:46.065Z,13.98
2022-12-23T18:55:48.835Z,16.33
2022-12-23T19:00:53.389Z,15.02
2022-12-23T19:05:57.834Z,14.23
2022-12-23T19:11:00.660Z,15.07
2022-12-23T19:16:03.163Z,15.27
2022-12-23T19:21:06.027Z,14.77
2022-12-23T19:26:13.586Z,15.32
2022-12-23T19:31:17.517Z,19.98
2022-12-23T19:36:23.775Z,25.75
2022-12-23T19:41:26.415Z,17.77
2022-12-23T19:46:28.964Z,17.92
2022-12-23T19:51:31.527Z,17.15
2022-12-23T19:56:35.649Z,19.60
2022-12-23T20:01:38.219Z,19.25
2022-12-23T20:06:42.252Z,17.70
2022-12-23T20:11:49.557Z,21.65
2022-12-23T20:21:54.368Z,22.45
2022-12-23T20:26:59.540Z,18.60
2022-12-23T20:32:02.183Z,17.52
2022-12-23T20:37:04.910Z,20.85
2022-12-23T20:42:07.410Z,16.30
2022-12-23T20:47:10.167Z,18.50
2022-12-23T20:52:13.618Z,20.80
2022-12-23T20:57:16.052Z,25.35
2022-12-23T21:02:18.628Z,14.80
2022-12-23T21:07:21.153Z,21.83
2022-12-23T21:12:23.579Z,22.63
2022-12-23T21:17:26.527Z,21.85
2022-12-23T21:22:29.132Z,21.80
2022-12-23T21:27:31.719Z,20.45
2022-12-23T21:32:34.254Z,17.33
2022-12-23T21:37:36.743Z,19.60
2022-12-23T21:42:39.870Z,20.00
2022-12-23T21:47:42.299Z,19.27
2022-12-23T21:52:44.805Z,17.55
2022-12-23T21:57:47.441Z,16.50
2022-12-23T22:02:49.847Z,12.20
2022-12-23T22:13:12.178Z,14.00
2022-12-23T22:18:14.753Z,10.70
2022-12-23T22:23:17.294Z,15.43
2022-12-23T22:33:40.156Z,9.93
2022-12-23T22:38:43.670Z,9.60
2022-12-23T22:43:46.147Z,11.10
2022-12-23T22:48:48.892Z,13.10
2022-12-23T22:53:51.449Z,13.10
2022-12-23T22:58:54.774Z,11.90
2022-12-23T23:03:59.617Z,10.45
2022-12-23T23:09:02.247Z,14.95
2022-12-23T23:14:05.248Z,14.35
2022-12-23T23:19:09.425Z,15.85
2022-12-23T23:24:12.321Z,15.38
2022-12-23T23:29:14.890Z,12.85
2022-12-23T23:34:17.362Z,13.27
2022-12-23T23:39:19.781Z,12.60
2022-12-23T23:44:22.548Z,12.25
2022-12-23T23:49:25.173Z,15.38
2022-12-23T23:54:27.720Z,14.15
2022-12-23T23:59:30.258Z,15.77
